sensor_id;sensor_type;location;lat;lon;timestamp;temperature;humidity
39655;DHT22;25336;59.944;11.010;2023-05-27T00:00:21;10.60;43.00
39655;DHT22;25336;59.944;11.010;2023-05-27T00:02:47;10.50;43.10
39655;DHT22;25336;59.944;11.010;2023-05-27T00:05:12;10.50;43.30
39655;DHT22;25336;59.944;11.010;2023-05-27T00:07:38;10.40;43.40
39655;DHT22;25336;59.944;11.010;2023-05-27T00:10:04;10.40;43.70
39655;DHT22;25336;59.944;11.010;2023-05-27T00:12:30;9.40;43.20
39655;DHT22;25336;59.944;11.010;2023-05-27T00:14:56;10.30;43.80
39655;DHT22;25336;59.944;11.010;2023-05-27T00:17:21;10.30;43.90
39655;DHT22;25336;59.944;11.010;2023-05-27T00:19:47;10.30;44.10
39655;DHT22;25336;59.944;11.010;2023-05-27T00:22:13;10.20;44.10
39655;DHT22;25336;59.944;11.010;2023-05-27T00:24:39;10.20;44.20
39655;DHT22;25336;59.944;11.010;2023-05-27T00:27:07;10.20;44.30
39655;DHT22;25336;59.944;11.010;2023-05-27T00:29:33;11.00;44.80
39655;DHT22;25336;59.944;11.010;2023-05-27T00:32:00;10.10;44.50
39655;DHT22;25336;59.944;11.010;2023-05-27T00:34:28;10.10;44.70
39655;DHT22;25336;59.944;11.010;2023-05-27T00:36:54;10.40;44.90
39655;DHT22;25336;59.944;11.010;2023-05-27T00:39:19;10.10;45.00
39655;DHT22;25336;59.944;11.010;2023-05-27T00:41:49;10.00;45.10
39655;DHT22;25336;59.944;11.010;2023-05-27T00:44:16;10.00;45.30
39655;DHT22;25336;59.944;11.010;2023-05-27T00:46:42;10.00;45.30
39655;DHT22;25336;59.944;11.010;2023-05-27T00:49:08;9.90;45.40
39655;DHT22;25336;59.944;11.010;2023-05-27T00:51:33;9.90;45.50
39655;DHT22;25336;59.944;11.010;2023-05-27T00:53:59;9.80;45.70
39655;DHT22;25336;59.944;11.010;2023-05-27T00:56:25;9.80;45.70
39655;DHT22;25336;59.944;11.010;2023-05-27T00:58:51;9.80;45.90
39655;DHT22;25336;59.944;11.010;2023-05-27T01:01:17;9.80;45.90
39655;DHT22;25336;59.944;11.010;2023-05-27T01:03:44;9.80;46.00
39655;DHT22;25336;59.944;11.010;2023-05-27T01:06:33;10.40;46.30
39655;DHT22;25336;59.944;11.010;2023-05-27T01:15:09;9.70;46.20
39655;DHT22;25336;59.944;11.010;2023-05-27T01:17:36;10.20;45.90
39655;DHT22;25336;59.944;11.010;2023-05-27T01:20:11;9.60;46.10
39655;DHT22;25336;59.944;11.010;2023-05-27T01:22:39;9.50;46.40
39655;DHT22;25336;59.944;11.010;2023-05-27T01:25:08;9.80;46.30
39655;DHT22;25336;59.944;11.010;2023-05-27T01:27:33;9.50;46.60
39655;DHT22;25336;59.944;11.010;2023-05-27T01:29:59;9.40;46.80
39655;DHT22;25336;59.944;11.010;2023-05-27T01:35:24;9.40;47.40
39655;DHT22;25336;59.944;11.010;2023-05-27T01:37:52;9.30;48.20
39655;DHT22;25336;59.944;11.010;2023-05-27T01:40:19;9.30;47.50
39655;DHT22;25336;59.944;11.010;2023-05-27T01:42:45;9.30;47.60
39655;DHT22;25336;59.944;11.010;2023-05-27T01:45:11;9.90;48.10
39655;DHT22;25336;59.944;11.010;2023-05-27T01:47:38;9.30;47.90
39655;DHT22;25336;59.944;11.010;2023-05-27T01:50:04;9.30;48.70
39655;DHT22;25336;59.944;11.010;2023-05-27T01:52:30;9.20;48.20
39655;DHT22;25336;59.944;11.010;2023-05-27T01:54:56;9.20;48.20
39655;DHT22;25336;59.944;11.010;2023-05-27T01:57:23;9.30;48.30
39655;DHT22;25336;59.944;11.010;2023-05-27T01:59:49;9.20;48.40
39655;DHT22;25336;59.944;11.010;2023-05-27T02:02:15;9.20;48.50
39655;DHT22;25336;59.944;11.010;2023-05-27T02:04:40;9.20;48.60
39655;DHT22;25336;59.944;11.010;2023-05-27T02:07:06;9.20;48.80
39655;DHT22;25336;59.944;11.010;2023-05-27T02:09:31;9.20;48.90
39655;DHT22;25336;59.944;11.010;2023-05-27T02:11:57;9.20;48.90
39655;DHT22;25336;59.944;11.010;2023-05-27T02:14:22;9.10;48.80
39655;DHT22;25336;59.944;11.010;2023-05-27T02:16:48;9.10;49.00
39655;DHT22;25336;59.944;11.010;2023-05-27T02:19:17;9.10;49.10
39655;DHT22;25336;59.944;11.010;2023-05-27T02:21:42;9.10;49.20
39655;DHT22;25336;59.944;11.010;2023-05-27T02:24:08;9.00;49.20
39655;DHT22;25336;59.944;11.010;2023-05-27T02:26:34;9.10;49.00
39655;DHT22;25336;59.944;11.010;2023-05-27T02:29:01;8.90;49.30
39655;DHT22;25336;59.944;11.010;2023-05-27T02:31:26;8.90;49.70
39655;DHT22;25336;59.944;11.010;2023-05-27T02:33:52;9.70;50.10
39655;DHT22;25336;59.944;11.010;2023-05-27T02:36:17;8.80;49.80
39655;DHT22;25336;59.944;11.010;2023-05-27T02:38:43;8.80;49.90
39655;DHT22;25336;59.944;11.010;2023-05-27T02:41:10;8.80;50.10
39655;DHT22;25336;59.944;11.010;2023-05-27T02:43:35;9.60;50.70
39655;DHT22;25336;59.944;11.010;2023-05-27T02:46:01;8.80;50.40
39655;DHT22;25336;59.944;11.010;2023-05-27T02:48:27;8.80;50.60
39655;DHT22;25336;59.944;11.010;2023-05-27T02:50:52;9.20;50.90
39655;DHT22;25336;59.944;11.010;2023-05-27T02:53:18;8.90;51.00
39655;DHT22;25336;59.944;11.010;2023-05-27T02:55:43;8.90;51.00
39655;DHT22;25336;59.944;11.010;2023-05-27T02:58:09;8.90;51.10
39655;DHT22;25336;59.944;11.010;2023-05-27T03:00:35;8.90;51.10
39655;DHT22;25336;59.944;11.010;2023-05-27T03:03:00;8.90;51.20
39655;DHT22;25336;59.944;11.010;2023-05-27T03:05:29;9.70;51.70
39655;DHT22;25336;59.944;11.010;2023-05-27T03:07:55;9.00;51.30
39655;DHT22;25336;59.944;11.010;2023-05-27T03:10:21;9.00;51.40
39655;DHT22;25336;59.944;11.010;2023-05-27T03:12:47;9.00;51.40
39655;DHT22;25336;59.944;11.010;2023-05-27T03:15:13;9.10;51.70
39655;DHT22;25336;59.944;11.010;2023-05-27T03:17:40;9.10;51.80
39655;DHT22;25336;59.944;11.010;2023-05-27T03:20:06;9.10;51.80
39655;DHT22;25336;59.944;11.010;2023-05-27T03:22:34;9.20;51.80
39655;DHT22;25336;59.944;11.010;2023-05-27T03:25:01;9.20;51.70
39655;DHT22;25336;59.944;11.010;2023-05-27T03:27:27;9.30;51.70
39655;DHT22;25336;59.944;11.010;2023-05-27T03:29:53;9.30;51.60
39655;DHT22;25336;59.944;11.010;2023-05-27T03:32:18;9.40;51.80
39655;DHT22;25336;59.944;11.010;2023-05-27T03:34:44;9.40;51.80
39655;DHT22;25336;59.944;11.010;2023-05-27T03:37:09;9.50;51.80
39655;DHT22;25336;59.944;11.010;2023-05-27T03:39:35;9.50;51.70
39655;DHT22;25336;59.944;11.010;2023-05-27T03:42:01;9.60;51.50
39655;DHT22;25336;59.944;11.010;2023-05-27T03:44:26;9.70;51.50
39655;DHT22;25336;59.944;11.010;2023-05-27T03:46:52;9.60;51.50
39655;DHT22;25336;59.944;11.010;2023-05-27T03:49:17;9.70;51.50
39655;DHT22;25336;59.944;11.010;2023-05-27T03:51:43;9.70;51.50
39655;DHT22;25336;59.944;11.010;2023-05-27T03:54:09;9.90;51.70
39655;DHT22;25336;59.944;11.010;2023-05-27T03:56:34;9.70;51.50
39655;DHT22;25336;59.944;11.010;2023-05-27T03:59:00;9.80;51.70
39655;DHT22;25336;59.944;11.010;2023-05-27T04:01:26;9.80;51.50
39655;DHT22;25336;59.944;11.010;2023-05-27T04:03:52;9.80;51.40
39655;DHT22;25336;59.944;11.010;2023-05-27T04:06:18;10.20;51.50
39655;DHT22;25336;59.944;11.010;2023-05-27T04:08:44;10.70;51.70
39655;DHT22;25336;59.944;11.010;2023-05-27T04:11:11;9.80;51.40
39655;DHT22;25336;59.944;11.010;2023-05-27T04:13:40;9.90;51.70
39655;DHT22;25336;59.944;11.010;2023-05-27T04:16:06;9.90;51.80
39655;DHT22;25336;59.944;11.010;2023-05-27T04:18:33;9.90;51.90
39655;DHT22;25336;59.944;11.010;2023-05-27T04:20:59;10.00;52.00
39655;DHT22;25336;59.944;11.010;2023-05-27T04:23:26;10.00;52.20
39655;DHT22;25336;59.944;11.010;2023-05-27T04:25:52;10.10;52.20
39655;DHT22;25336;59.944;11.010;2023-05-27T04:28:18;10.10;52.10
39655;DHT22;25336;59.944;11.010;2023-05-27T04:30:44;10.10;52.10
39655;DHT22;25336;59.944;11.010;2023-05-27T04:33:12;10.20;52.10
39655;DHT22;25336;59.944;11.010;2023-05-27T04:35:39;10.30;52.10
39655;DHT22;25336;59.944;11.010;2023-05-27T04:38:06;10.30;52.10
39655;DHT22;25336;59.944;11.010;2023-05-27T04:40:33;10.40;52.10
39655;DHT22;25336;59.944;11.010;2023-05-27T04:42:59;10.40;52.00
39655;DHT22;25336;59.944;11.010;2023-05-27T04:45:25;10.50;52.00
39655;DHT22;25336;59.944;11.010;2023-05-27T04:47:52;10.60;52.00
39655;DHT22;25336;59.944;11.010;2023-05-27T04:50:17;10.60;52.10
39655;DHT22;25336;59.944;11.010;2023-05-27T04:52:43;10.70;52.20
39655;DHT22;25336;59.944;11.010;2023-05-27T04:55:10;10.70;52.20
39655;DHT22;25336;59.944;11.010;2023-05-27T04:57:36;10.80;52.10
39655;DHT22;25336;59.944;11.010;2023-05-27T05:00:05;10.90;52.00
39655;DHT22;25336;59.944;11.010;2023-05-27T05:02:31;11.00;52.30
39655;DHT22;25336;59.944;11.010;2023-05-27T05:05:07;11.10;52.20
39655;DHT22;25336;59.944;11.010;2023-05-27T05:07:37;11.80;52.80
39655;DHT22;25336;59.944;11.010;2023-05-27T05:10:07;11.30;51.90
39655;DHT22;25336;59.944;11.010;2023-05-27T05:12:33;11.50;52.00
39655;DHT22;25336;59.944;11.010;2023-05-27T05:14:59;11.00;51.60
39655;DHT22;25336;59.944;11.010;2023-05-27T05:17:25;11.70;51.70
39655;DHT22;25336;59.944;11.010;2023-05-27T05:19:54;11.80;51.40
39655;DHT22;25336;59.944;11.010;2023-05-27T05:22:20;12.00;51.70
39655;DHT22;25336;59.944;11.010;2023-05-27T05:24:49;12.10;51.30
39655;DHT22;25336;59.944;11.010;2023-05-27T05:27:15;12.20;50.90
39655;DHT22;25336;59.944;11.010;2023-05-27T05:29:41;12.30;50.60
39655;DHT22;25336;59.944;11.010;2023-05-27T05:32:07;12.40;50.40
39655;DHT22;25336;59.944;11.010;2023-05-27T05:34:35;12.50;50.40
39655;DHT22;25336;59.944;11.010;2023-05-27T05:37:00;12.60;50.10
39655;DHT22;25336;59.944;11.010;2023-05-27T05:39:26;12.70;49.70
39655;DHT22;25336;59.944;11.010;2023-05-27T05:41:52;12.80;49.50
39655;DHT22;25336;59.944;11.010;2023-05-27T05:44:17;12.80;49.40
39655;DHT22;25336;59.944;11.010;2023-05-27T05:46:43;12.90;49.40
39655;DHT22;25336;59.944;11.010;2023-05-27T05:49:09;13.10;49.30
39655;DHT22;25336;59.944;11.010;2023-05-27T05:51:34;13.90;49.60
39655;DHT22;25336;59.944;11.010;2023-05-27T05:54:00;13.20;49.20
39655;DHT22;25336;59.944;11.010;2023-05-27T05:56:27;13.40;49.00
39655;DHT22;25336;59.944;11.010;2023-05-27T05:58:53;13.50;48.60
39655;DHT22;25336;59.944;11.010;2023-05-27T06:01:18;13.00;47.80
39655;DHT22;25336;59.944;11.010;2023-05-27T06:03:44;13.60;47.60
39655;DHT22;25336;59.944;11.010;2023-05-27T06:06:10;13.70;47.20
39655;DHT22;25336;59.944;11.010;2023-05-27T06:08:36;13.80;46.80
39655;DHT22;25336;59.944;11.010;2023-05-27T06:11:02;13.90;46.50
39655;DHT22;25336;59.944;11.010;2023-05-27T06:13:29;14.00;46.40
39655;DHT22;25336;59.944;11.010;2023-05-27T06:15:54;14.10;46.20
39655;DHT22;25336;59.944;11.010;2023-05-27T06:18:21;14.10;46.10
39655;DHT22;25336;59.944;11.010;2023-05-27T06:20:47;14.20;45.80
39655;DHT22;25336;59.944;11.010;2023-05-27T06:23:12;14.20;45.50
39655;DHT22;25336;59.944;11.010;2023-05-27T06:25:38;14.30;45.20
39655;DHT22;25336;59.944;11.010;2023-05-27T06:28:04;14.30;45.10
39655;DHT22;25336;59.944;11.010;2023-05-27T06:30:31;14.30;45.10
39655;DHT22;25336;59.944;11.010;2023-05-27T06:32:57;14.30;45.10
39655;DHT22;25336;59.944;11.010;2023-05-27T06:35:22;14.30;44.90
39655;DHT22;25336;59.944;11.010;2023-05-27T06:37:48;14.30;44.70
39655;DHT22;25336;59.944;11.010;2023-05-27T06:40:13;14.30;44.70
39655;DHT22;25336;59.944;11.010;2023-05-27T06:42:39;14.40;44.70
39655;DHT22;25336;59.944;11.010;2023-05-27T06:45:05;14.40;44.90
39655;DHT22;25336;59.944;11.010;2023-05-27T06:47:31;14.40;44.70
39655;DHT22;25336;59.944;11.010;2023-05-27T06:49:57;14.50;44.70
39655;DHT22;25336;59.944;11.010;2023-05-27T06:52:22;14.60;44.30
39655;DHT22;25336;59.944;11.010;2023-05-27T06:54:48;14.70;44.20
39655;DHT22;25336;59.944;11.010;2023-05-27T06:57:14;14.90;44.30
39655;DHT22;25336;59.944;11.010;2023-05-27T06:59:40;14.90;44.20
39655;DHT22;25336;59.944;11.010;2023-05-27T07:02:06;15.00;44.20
39655;DHT22;25336;59.944;11.010;2023-05-27T07:04:33;15.10;44.00
39655;DHT22;25336;59.944;11.010;2023-05-27T07:06:58;16.30;44.20
39655;DHT22;25336;59.944;11.010;2023-05-27T07:09:24;15.20;43.40
39655;DHT22;25336;59.944;11.010;2023-05-27T07:11:50;15.20;43.40
39655;DHT22;25336;59.944;11.010;2023-05-27T07:14:15;15.30;43.60
39655;DHT22;25336;59.944;11.010;2023-05-27T07:16:41;15.20;43.60
39655;DHT22;25336;59.944;11.010;2023-05-27T07:19:07;15.40;43.60
39655;DHT22;25336;59.944;11.010;2023-05-27T07:21:33;16.20;43.70
39655;DHT22;25336;59.944;11.010;2023-05-27T07:24:00;15.60;43.30
39655;DHT22;25336;59.944;11.010;2023-05-27T07:26:29;15.60;43.00
39655;DHT22;25336;59.944;11.010;2023-05-27T07:28:57;16.60;43.00
39655;DHT22;25336;59.944;11.010;2023-05-27T07:31:24;15.80;42.50
39655;DHT22;25336;59.944;11.010;2023-05-27T07:33:49;15.90;42.30
39655;DHT22;25336;59.944;11.010;2023-05-27T07:36:15;15.90;41.90
39655;DHT22;25336;59.944;11.010;2023-05-27T07:38:40;15.90;41.80
39655;DHT22;25336;59.944;11.010;2023-05-27T07:41:06;15.90;41.70
39655;DHT22;25336;59.944;11.010;2023-05-27T07:43:32;16.00;41.60
39655;DHT22;25336;59.944;11.010;2023-05-27T07:45:57;16.00;41.40
39655;DHT22;25336;59.944;11.010;2023-05-27T07:48:23;16.00;41.20
39655;DHT22;25336;59.944;11.010;2023-05-27T07:50:48;16.10;41.10
39655;DHT22;25336;59.944;11.010;2023-05-27T07:53:14;16.00;40.90
39655;DHT22;25336;59.944;11.010;2023-05-27T07:55:39;16.00;41.00
39655;DHT22;25336;59.944;11.010;2023-05-27T07:58:05;16.10;40.80
39655;DHT22;25336;59.944;11.010;2023-05-27T08:00:31;16.10;40.80
39655;DHT22;25336;59.944;11.010;2023-05-27T08:02:56;16.10;40.70
39655;DHT22;25336;59.944;11.010;2023-05-27T08:05:22;16.20;40.70
39655;DHT22;25336;59.944;11.010;2023-05-27T08:07:48;16.20;40.60
39655;DHT22;25336;59.944;11.010;2023-05-27T08:10:13;16.20;40.50
39655;DHT22;25336;59.944;11.010;2023-05-27T08:12:39;16.20;40.40
39655;DHT22;25336;59.944;11.010;2023-05-27T08:15:05;15.90;40.70
39655;DHT22;25336;59.944;11.010;2023-05-27T08:17:31;16.30;40.30
39655;DHT22;25336;59.944;11.010;2023-05-27T08:19:56;16.30;40.40
39655;DHT22;25336;59.944;11.010;2023-05-27T08:22:22;16.40;40.20
39655;DHT22;25336;59.944;11.010;2023-05-27T08:24:48;16.50;40.10
39655;DHT22;25336;59.944;11.010;2023-05-27T08:27:15;16.60;40.00
39655;DHT22;25336;59.944;11.010;2023-05-27T08:29:42;16.60;39.70
39655;DHT22;25336;59.944;11.010;2023-05-27T08:32:07;16.70;39.70
39655;DHT22;25336;59.944;11.010;2023-05-27T08:34:33;16.80;39.40
39655;DHT22;25336;59.944;11.010;2023-05-27T08:36:58;16.80;39.30
39655;DHT22;25336;59.944;11.010;2023-05-27T08:39:25;16.90;39.40
39655;DHT22;25336;59.944;11.010;2023-05-27T08:41:52;16.60;39.20
39655;DHT22;25336;59.944;11.010;2023-05-27T08:44:21;17.00;39.40
39655;DHT22;25336;59.944;11.010;2023-05-27T08:46:48;17.20;39.10
39655;DHT22;25336;59.944;11.010;2023-05-27T08:49:14;17.70;39.10
39655;DHT22;25336;59.944;11.010;2023-05-27T08:51:40;17.30;38.90
39655;DHT22;25336;59.944;11.010;2023-05-27T08:54:08;17.30;38.70
39655;DHT22;25336;59.944;11.010;2023-05-27T08:56:35;17.40;38.70
39655;DHT22;25336;59.944;11.010;2023-05-27T08:59:01;17.80;39.00
39655;DHT22;25336;59.944;11.010;2023-05-27T09:01:27;17.50;38.70
39655;DHT22;25336;59.944;11.010;2023-05-27T09:03:54;17.50;38.70
39655;DHT22;25336;59.944;11.010;2023-05-27T09:06:21;17.60;38.80
39655;DHT22;25336;59.944;11.010;2023-05-27T09:08:46;17.70;38.70
39655;DHT22;25336;59.944;11.010;2023-05-27T09:11:25;17.70;38.50
39655;DHT22;25336;59.944;11.010;2023-05-27T09:13:54;17.80;38.50
39655;DHT22;25336;59.944;11.010;2023-05-27T09:16:21;17.90;38.80
39655;DHT22;25336;59.944;11.010;2023-05-27T09:18:47;18.10;38.30
39655;DHT22;25336;59.944;11.010;2023-05-27T09:21:13;18.20;38.00
39655;DHT22;25336;59.944;11.010;2023-05-27T09:23:39;18.20;37.80
39655;DHT22;25336;59.944;11.010;2023-05-27T09:26:12;18.30;37.80
39655;DHT22;25336;59.944;11.010;2023-05-27T09:28:38;18.40;38.00
39655;DHT22;25336;59.944;11.010;2023-05-27T09:31:06;18.50;37.70
39655;DHT22;25336;59.944;11.010;2023-05-27T09:33:34;18.50;37.70
39655;DHT22;25336;59.944;11.010;2023-05-27T09:36:04;18.60;37.70
39655;DHT22;25336;59.944;11.010;2023-05-27T09:38:30;18.70;37.30
39655;DHT22;25336;59.944;11.010;2023-05-27T09:41:00;18.80;37.20
39655;DHT22;25336;59.944;11.010;2023-05-27T09:43:27;18.80;37.20
39655;DHT22;25336;59.944;11.010;2023-05-27T09:46:03;18.90;37.30
39655;DHT22;25336;59.944;11.010;2023-05-27T09:48:32;19.00;37.10
39655;DHT22;25336;59.944;11.010;2023-05-27T09:50:59;19.10;37.50
39655;DHT22;25336;59.944;11.010;2023-05-27T09:53:26;19.20;37.30
39655;DHT22;25336;59.944;11.010;2023-05-27T09:55:53;19.30;37.90
39655;DHT22;25336;59.944;11.010;2023-05-27T09:58:21;19.40;37.00
39655;DHT22;25336;59.944;11.010;2023-05-27T10:00:48;19.50;36.30
39655;DHT22;25336;59.944;11.010;2023-05-27T10:03:14;19.60;36.10
39655;DHT22;25336;59.944;11.010;2023-05-27T10:05:45;19.70;35.30
39655;DHT22;25336;59.944;11.010;2023-05-27T10:08:12;19.80;35.20
39655;DHT22;25336;59.944;11.010;2023-05-27T10:10:38;20.00;35.00
39655;DHT22;25336;59.944;11.010;2023-05-27T10:13:05;20.50;35.20
39655;DHT22;25336;59.944;11.010;2023-05-27T10:15:33;19.90;34.80
39655;DHT22;25336;59.944;11.010;2023-05-27T10:18:04;19.90;35.10
39655;DHT22;25336;59.944;11.010;2023-05-27T10:20:41;19.90;34.80
39655;DHT22;25336;59.944;11.010;2023-05-27T10:23:18;19.90;34.80
39655;DHT22;25336;59.944;11.010;2023-05-27T10:25:47;19.90;35.10
39655;DHT22;25336;59.944;11.010;2023-05-27T10:28:39;20.00;35.30
39655;DHT22;25336;59.944;11.010;2023-05-27T10:33:35;20.20;35.60
39655;DHT22;25336;59.944;11.010;2023-05-27T10:36:08;20.30;35.00
39655;DHT22;25336;59.944;11.010;2023-05-27T10:38:35;20.40;34.60
39655;DHT22;25336;59.944;11.010;2023-05-27T10:41:01;20.50;35.00
39655;DHT22;25336;59.944;11.010;2023-05-27T10:43:28;20.60;34.80
39655;DHT22;25336;59.944;11.010;2023-05-27T10:46:13;20.70;34.60
39655;DHT22;25336;59.944;11.010;2023-05-27T10:48:39;20.70;33.70
39655;DHT22;25336;59.944;11.010;2023-05-27T10:51:05;20.80;34.40
39655;DHT22;25336;59.944;11.010;2023-05-27T10:53:34;20.80;34.50
39655;DHT22;25336;59.944;11.010;2023-05-27T10:56:01;20.90;34.10
39655;DHT22;25336;59.944;11.010;2023-05-27T10:58:27;21.00;34.10
39655;DHT22;25336;59.944;11.010;2023-05-27T11:00:53;21.10;34.10
39655;DHT22;25336;59.944;11.010;2023-05-27T11:03:27;21.90;34.20
39655;DHT22;25336;59.944;11.010;2023-05-27T11:06:02;21.30;33.30
39655;DHT22;25336;59.944;11.010;2023-05-27T11:08:29;21.50;33.00
39655;DHT22;25336;59.944;11.010;2023-05-27T11:11:21;21.50;32.90
39655;DHT22;25336;59.944;11.010;2023-05-27T11:13:48;21.60;32.90
39655;DHT22;25336;59.944;11.010;2023-05-27T11:16:14;21.70;32.80
39655;DHT22;25336;59.944;11.010;2023-05-27T11:18:42;21.70;32.60
39655;DHT22;25336;59.944;11.010;2023-05-27T11:21:10;21.70;33.00
39655;DHT22;25336;59.944;11.010;2023-05-27T11:23:46;22.50;33.40
39655;DHT22;25336;59.944;11.010;2023-05-27T11:28:47;22.00;33.30
39655;DHT22;25336;59.944;11.010;2023-05-27T11:31:13;22.10;33.50
39655;DHT22;25336;59.944;11.010;2023-05-27T11:33:43;22.70;32.70
39655;DHT22;25336;59.944;11.010;2023-05-27T11:36:14;22.30;31.50
39655;DHT22;25336;59.944;11.010;2023-05-27T11:38:50;22.40;31.80
39655;DHT22;25336;59.944;11.010;2023-05-27T11:41:17;22.40;31.70
39655;DHT22;25336;59.944;11.010;2023-05-27T11:43:51;22.50;31.70
39655;DHT22;25336;59.944;11.010;2023-05-27T11:46:17;22.50;31.70
39655;DHT22;25336;59.944;11.010;2023-05-27T11:48:43;22.50;31.60
39655;DHT22;25336;59.944;11.010;2023-05-27T11:51:10;22.50;31.70
39655;DHT22;25336;59.944;11.010;2023-05-27T11:53:43;22.60;31.60
39655;DHT22;25336;59.944;11.010;2023-05-27T11:56:09;22.70;30.90
39655;DHT22;25336;59.944;11.010;2023-05-27T11:58:34;22.70;31.40
39655;DHT22;25336;59.944;11.010;2023-05-27T12:01:05;22.80;31.20
39655;DHT22;25336;59.944;11.010;2023-05-27T12:03:33;22.90;30.70
39655;DHT22;25336;59.944;11.010;2023-05-27T12:05:59;23.70;32.00
39655;DHT22;25336;59.944;11.010;2023-05-27T12:08:24;23.20;30.90
39655;DHT22;25336;59.944;11.010;2023-05-27T12:10:51;23.10;30.60
39655;DHT22;25336;59.944;11.010;2023-05-27T12:13:20;23.10;30.30
39655;DHT22;25336;59.944;11.010;2023-05-27T12:15:49;23.10;30.50
39655;DHT22;25336;59.944;11.010;2023-05-27T12:18:15;23.00;31.00
39655;DHT22;25336;59.944;11.010;2023-05-27T12:20:41;23.00;31.20
39655;DHT22;25336;59.944;11.010;2023-05-27T12:23:10;23.00;31.10
39655;DHT22;25336;59.944;11.010;2023-05-27T12:25:36;23.00;30.20
39655;DHT22;25336;59.944;11.010;2023-05-27T12:28:01;23.00;30.40
39655;DHT22;25336;59.944;11.010;2023-05-27T12:30:27;23.00;30.40
39655;DHT22;25336;59.944;11.010;2023-05-27T12:32:53;23.00;30.80
39655;DHT22;25336;59.944;11.010;2023-05-27T12:35:20;23.00;31.50
39655;DHT22;25336;59.944;11.010;2023-05-27T12:37:45;23.80;31.80
39655;DHT22;25336;59.944;11.010;2023-05-27T12:40:11;23.10;31.40
39655;DHT22;25336;59.944;11.010;2023-05-27T12:42:40;23.10;31.40
39655;DHT22;25336;59.944;11.010;2023-05-27T12:45:08;23.10;31.40
39655;DHT22;25336;59.944;11.010;2023-05-27T12:47:34;23.20;31.10
39655;DHT22;25336;59.944;11.010;2023-05-27T12:49:59;23.20;31.20
39655;DHT22;25336;59.944;11.010;2023-05-27T12:52:25;23.20;31.30
39655;DHT22;25336;59.944;11.010;2023-05-27T12:54:51;23.20;31.30
39655;DHT22;25336;59.944;11.010;2023-05-27T12:57:16;23.20;30.90
39655;DHT22;25336;59.944;11.010;2023-05-27T12:59:42;23.20;31.10
39655;DHT22;25336;59.944;11.010;2023-05-27T13:02:08;23.80;31.60
39655;DHT22;25336;59.944;11.010;2023-05-27T13:04:33;23.20;31.20
39655;DHT22;25336;59.944;11.010;2023-05-27T13:06:59;23.20;31.50
39655;DHT22;25336;59.944;11.010;2023-05-27T13:09:25;23.10;31.30
39655;DHT22;25336;59.944;11.010;2023-05-27T13:11:51;23.20;31.50
39655;DHT22;25336;59.944;11.010;2023-05-27T13:14:16;23.20;31.40
39655;DHT22;25336;59.944;11.010;2023-05-27T13:16:42;23.20;31.40
39655;DHT22;25336;59.944;11.010;2023-05-27T13:19:07;24.00;31.60
39655;DHT22;25336;59.944;11.010;2023-05-27T13:21:33;23.30;30.90
39655;DHT22;25336;59.944;11.010;2023-05-27T13:23:59;22.70;30.30
39655;DHT22;25336;59.944;11.010;2023-05-27T13:26:25;23.30;30.60
39655;DHT22;25336;59.944;11.010;2023-05-27T13:28:51;24.00;30.60
39655;DHT22;25336;59.944;11.010;2023-05-27T13:31:17;23.20;30.10
39655;DHT22;25336;59.944;11.010;2023-05-27T13:33:43;23.10;29.60
39655;DHT22;25336;59.944;11.010;2023-05-27T13:36:08;23.00;29.80
39655;DHT22;25336;59.944;11.010;2023-05-27T13:38:34;23.10;29.80
39655;DHT22;25336;59.944;11.010;2023-05-27T13:40:59;23.20;30.00
39655;DHT22;25336;59.944;11.010;2023-05-27T13:43:25;22.70;29.90
39655;DHT22;25336;59.944;11.010;2023-05-27T13:45:51;22.70;29.90
39655;DHT22;25336;59.944;11.010;2023-05-27T13:48:17;22.60;30.00
39655;DHT22;25336;59.944;11.010;2023-05-27T13:50:42;22.50;30.10
39655;DHT22;25336;59.944;11.010;2023-05-27T13:53:08;22.50;30.10
39655;DHT22;25336;59.944;11.010;2023-05-27T13:55:34;22.40;30.60
39655;DHT22;25336;59.944;11.010;2023-05-27T13:57:59;22.40;30.80
39655;DHT22;25336;59.944;11.010;2023-05-27T14:00:25;22.30;30.80
39655;DHT22;25336;59.944;11.010;2023-05-27T14:02:51;22.20;31.00
39655;DHT22;25336;59.944;11.010;2023-05-27T14:05:17;23.00;31.50
39655;DHT22;25336;59.944;11.010;2023-05-27T14:07:43;21.90;30.90
39655;DHT22;25336;59.944;11.010;2023-05-27T14:10:10;22.60;31.50
39655;DHT22;25336;59.944;11.010;2023-05-27T14:12:36;21.80;31.50
39655;DHT22;25336;59.944;11.010;2023-05-27T14:15:02;21.70;31.60
39655;DHT22;25336;59.944;11.010;2023-05-27T14:17:28;21.60;31.70
39655;DHT22;25336;59.944;11.010;2023-05-27T14:19:54;21.60;31.60
39655;DHT22;25336;59.944;11.010;2023-05-27T14:22:19;22.30;31.70
39655;DHT22;25336;59.944;11.010;2023-05-27T14:24:45;21.50;31.40
39655;DHT22;25336;59.944;11.010;2023-05-27T14:27:11;21.40;31.70
39655;DHT22;25336;59.944;11.010;2023-05-27T14:29:37;21.30;31.80
39655;DHT22;25336;59.944;11.010;2023-05-27T14:32:03;21.30;32.00
39655;DHT22;25336;59.944;11.010;2023-05-27T14:34:28;21.20;32.10
39655;DHT22;25336;59.944;11.010;2023-05-27T14:36:54;21.10;32.20
39655;DHT22;25336;59.944;11.010;2023-05-27T14:39:20;21.10;32.40
39655;DHT22;25336;59.944;11.010;2023-05-27T14:41:45;21.10;32.30
39655;DHT22;25336;59.944;11.010;2023-05-27T14:44:11;21.00;32.10
39655;DHT22;25336;59.944;11.010;2023-05-27T14:46:37;21.00;32.20
39655;DHT22;25336;59.944;11.010;2023-05-27T14:49:03;21.00;32.20
39655;DHT22;25336;59.944;11.010;2023-05-27T14:51:29;21.00;32.90
39655;DHT22;25336;59.944;11.010;2023-05-27T14:53:54;21.00;33.20
39655;DHT22;25336;59.944;11.010;2023-05-27T14:56:20;21.10;32.50
39655;DHT22;25336;59.944;11.010;2023-05-27T14:58:47;21.20;32.40
39655;DHT22;25336;59.944;11.010;2023-05-27T15:01:13;21.20;33.20
39655;DHT22;25336;59.944;11.010;2023-05-27T15:03:39;21.30;32.70
39655;DHT22;25336;59.944;11.010;2023-05-27T15:06:05;21.40;32.50
39655;DHT22;25336;59.944;11.010;2023-05-27T15:08:33;21.40;32.30
39655;DHT22;25336;59.944;11.010;2023-05-27T15:11:00;21.40;31.80
39655;DHT22;25336;59.944;11.010;2023-05-27T15:13:26;21.40;31.70
39655;DHT22;25336;59.944;11.010;2023-05-27T15:15:51;21.40;31.90
39655;DHT22;25336;59.944;11.010;2023-05-27T15:18:17;22.20;32.10
39655;DHT22;25336;59.944;11.010;2023-05-27T15:20:42;21.30;31.80
39655;DHT22;25336;59.944;11.010;2023-05-27T15:23:08;20.70;31.40
39655;DHT22;25336;59.944;11.010;2023-05-27T15:25:35;21.20;32.00
39655;DHT22;25336;59.944;11.010;2023-05-27T15:28:01;22.00;32.80
39655;DHT22;25336;59.944;11.010;2023-05-27T15:30:26;21.00;32.70